createdAt,value
2019-03-23T00:00:15.186Z,56.23
2019-03-23T00:00:48.392Z,58.37
2019-03-23T00:01:21.437Z,65.70
2019-03-23T00:01:54.572Z,63.87
2019-03-23T00:02:25.713Z,53.17
2019-03-23T00:02:56.933Z,61.80
2019-03-23T00:03:28.089Z,59.60
2019-03-23T00:03:59.304Z,62.30
2019-03-23T00:04:30.521Z,59.93
2019-03-23T00:05:02.465Z,62.40
2019-03-23T00:05:33.716Z,57.17
2019-03-23T00:06:04.984Z,58.40
2019-03-23T00:06:36.290Z,60.47
2019-03-23T00:07:07.622Z,61.60
2019-03-23T00:07:38.837Z,63.83
2019-03-23T00:08:11.080Z,61.17
2019-03-23T00:08:43.316Z,64.10
2019-03-23T00:09:14.524Z,65.20
2019-03-23T00:09:45.726Z,69.80
2019-03-23T00:10:16.885Z,65.43
2019-03-23T00:10:48.100Z,68.03
2019-03-23T00:11:19.247Z,67.07
2019-03-23T00:11:50.462Z,68.03
2019-03-23T00:12:21.650Z,65.83
2019-03-23T00:12:52.871Z,66.37
2019-03-23T00:13:24.328Z,69.40
2019-03-23T00:13:55.541Z,69.80
2019-03-23T00:14:26.700Z,67.73
2019-03-23T00:14:58.091Z,69.10
2019-03-23T00:15:29.267Z,68.57
2019-03-23T00:16:00.419Z,67.23
2019-03-23T00:16:31.687Z,58.33
2019-03-23T00:17:02.861Z,60.83
2019-03-23T00:17:34.011Z,62.23
2019-03-23T00:18:05.179Z,56.17
2019-03-23T00:18:36.354Z,58.53
2019-03-23T00:19:07.505Z,53.20
2019-03-23T00:19:38.751Z,49.90
2019-03-23T00:20:09.928Z,53.13
2019-03-23T00:20:41.089Z,49.87
2019-03-23T00:21:12.226Z,49.37
2019-03-23T00:21:43.450Z,48.23
2019-03-23T00:22:14.615Z,46.67
2019-03-23T00:22:45.775Z,54.53
2019-03-23T00:23:16.955Z,56.23
2019-03-23T00:23:48.148Z,52.40
2019-03-23T00:24:19.402Z,53.10
2019-03-23T00:24:50.613Z,53.63
2019-03-23T00:25:21.770Z,52.67
2019-03-23T00:25:52.983Z,56.57
2019-03-23T00:26:24.128Z,56.83
2019-03-23T00:26:55.376Z,57.27
2019-03-23T00:27:26.597Z,56.37
2019-03-23T00:27:58.160Z,59.83
2019-03-23T00:28:29.326Z,65.37
2019-03-23T00:29:00.531Z,60.23
2019-03-23T00:29:31.683Z,58.80
2019-03-23T00:30:11.953Z,61.93
2019-03-23T00:30:43.112Z,66.53
2019-03-23T00:31:14.337Z,61.03
2019-03-23T00:31:45.492Z,65.03
2019-03-23T00:32:16.698Z,55.67
2019-03-23T00:32:47.868Z,62.07
2019-03-23T00:33:19.076Z,62.33
2019-03-23T00:33:50.265Z,52.07
2019-03-23T00:34:21.434Z,51.63
2019-03-23T00:34:52.612Z,51.03
2019-03-23T00:35:23.801Z,53.10
2019-03-23T00:35:54.985Z,50.83
2019-03-23T00:36:26.163Z,55.87
2019-03-23T00:36:57.474Z,49.17
2019-03-23T00:37:28.630Z,51.43
2019-03-23T00:37:59.907Z,51.43
2019-03-23T00:38:31.113Z,50.20
2019-03-23T00:39:04.102Z,51.07
2019-03-23T00:39:35.287Z,58.23
2019-03-23T00:40:07.885Z,53.60
2019-03-23T00:40:39.069Z,53.83
2019-03-23T00:41:10.289Z,46.47
2019-03-23T00:41:41.478Z,49.43
2019-03-23T00:42:12.765Z,46.30
2019-03-23T00:42:43.954Z,51.43
2019-03-23T00:43:15.140Z,47.67
2019-03-23T00:43:46.327Z,44.43
2019-03-23T00:44:18.516Z,44.33
2019-03-23T00:44:49.691Z,51.30
2019-03-23T00:45:20.877Z,45.60
2019-03-23T00:45:52.055Z,44.40
2019-03-23T00:46:23.201Z,42.87
2019-03-23T00:46:54.365Z,43.97
2019-03-23T00:47:25.545Z,90.33
2019-03-23T00:47:56.694Z,87.30
2019-03-23T00:48:28.001Z,119.23
2019-03-23T00:48:59.183Z,119.50
2019-03-23T00:49:30.352Z,124.53
2019-03-23T00:50:01.655Z,137.10
2019-03-23T00:50:32.905Z,126.40
2019-03-23T00:51:05.140Z,130.20
2019-03-23T00:51:36.378Z,123.43
2019-03-23T00:52:07.604Z,134.23
2019-03-23T00:52:38.881Z,131.37
2019-03-23T00:53:11.132Z,133.20
2019-03-23T00:53:42.361Z,129.20
2019-03-23T00:54:13.566Z,120.60
2019-03-23T00:54:44.762Z,120.20
2019-03-23T00:55:15.977Z,114.20
2019-03-23T00:55:47.136Z,112.10
2019-03-23T00:56:18.358Z,119.67
2019-03-23T00:56:49.522Z,109.30
2019-03-23T00:57:20.720Z,115.40
2019-03-23T00:57:51.878Z,98.43
2019-03-23T00:58:23.184Z,92.30
2019-03-23T00:58:54.461Z,81.10
2019-03-23T00:59:25.678Z,82.60
2019-03-23T00:59:56.831Z,75.67
2019-03-23T01:00:28.151Z,78.03
2019-03-23T01:00:59.296Z,105.87
2019-03-23T01:01:31.490Z,120.70
2019-03-23T01:02:02.644Z,126.27
2019-03-23T01:02:33.864Z,134.70
2019-03-23T01:03:06.023Z,125.50
2019-03-23T01:03:37.225Z,133.43
2019-03-23T01:04:08.393Z,143.60
2019-03-23T01:04:39.610Z,126.93
2019-03-23T01:05:10.765Z,136.53
2019-03-23T01:05:41.964Z,118.07
2019-03-23T01:06:13.104Z,116.27
2019-03-23T01:06:51.777Z,108.60
2019-03-23T01:07:17.347Z,100.20
2019-03-23T01:07:48.556Z,99.30
2019-03-23T01:08:19.707Z,101.20
2019-03-23T01:08:50.922Z,106.17
2019-03-23T01:09:22.095Z,98.00
2019-03-23T01:09:53.351Z,102.63
2019-03-23T01:10:24.592Z,104.93
2019-03-23T01:10:55.807Z,107.30
2019-03-23T01:11:27.042Z,102.77
2019-03-23T01:11:58.289Z,106.23
2019-03-23T01:12:29.523Z,110.80
2019-03-23T01:13:00.766Z,112.63
2019-03-23T01:13:32.002Z,113.53
2019-03-23T01:14:03.229Z,108.73
2019-03-23T01:14:34.452Z,112.17
2019-03-23T01:15:08.612Z,111.17
2019-03-23T01:15:39.800Z,104.13
2019-03-23T01:16:10.990Z,108.77
2019-03-23T01:16:42.153Z,104.67
2019-03-23T01:17:13.329Z,98.37
2019-03-23T01:17:44.492Z,101.13
2019-03-23T01:18:15.639Z,95.60
2019-03-23T01:18:46.808Z,100.63
2019-03-23T01:19:17.982Z,99.77
2019-03-23T01:19:49.175Z,100.87
2019-03-23T01:20:20.327Z,86.80
2019-03-23T01:20:51.547Z,92.27
2019-03-23T01:21:22.757Z,90.57
2019-03-23T01:21:53.969Z,82.57
2019-03-23T01:22:25.129Z,81.00
2019-03-23T01:22:56.691Z,80.13
2019-03-23T01:23:27.924Z,77.30
2019-03-23T01:23:59.133Z,79.90
2019-03-23T01:24:30.318Z,70.27
2019-03-23T01:25:02.623Z,74.93
2019-03-23T01:25:33.799Z,74.50
2019-03-23T01:26:05.108Z,77.13
2019-03-23T01:26:36.261Z,77.60
2019-03-23T01:27:08.450Z,75.87
2019-03-23T01:27:39.605Z,74.27
2019-03-23T01:28:10.813Z,70.37
2019-03-23T01:28:41.968Z,73.10
2019-03-23T01:29:13.169Z,82.70
2019-03-23T01:29:44.351Z,80.40
2019-03-23T01:30:15.525Z,78.70
2019-03-23T01:30:46.761Z,80.37
2019-03-23T01:31:17.983Z,77.50
2019-03-23T01:31:49.155Z,83.33
2019-03-23T01:32:20.345Z,81.53
2019-03-23T01:32:51.519Z,84.73
2019-03-23T01:33:22.714Z,75.17
2019-03-23T01:33:53.883Z,76.60
2019-03-23T01:34:25.192Z,77.10
2019-03-23T01:34:56.414Z,70.90
2019-03-23T01:35:27.576Z,69.13
2019-03-23T01:35:58.780Z,68.93
2019-03-23T01:36:29.944Z,67.20
2019-03-23T01:37:02.976Z,70.60
2019-03-23T01:37:34.206Z,61.43
2019-03-23T01:38:05.418Z,57.20
2019-03-23T01:38:36.579Z,60.73
2019-03-23T01:39:07.789Z,61.13
2019-03-23T01:39:38.980Z,64.37
2019-03-23T01:40:10.212Z,68.30
2019-03-23T01:40:41.360Z,66.00
2019-03-23T01:41:12.588Z,63.90
2019-03-23T01:41:43.762Z,66.03
2019-03-23T01:42:15.076Z,62.57
2019-03-23T01:42:46.254Z,67.47
2019-03-23T01:43:18.460Z,62.57
2019-03-23T01:43:49.746Z,72.80
2019-03-23T01:44:20.958Z,62.30
2019-03-23T01:44:52.126Z,62.30
2019-03-23T01:45:23.320Z,66.30
2019-03-23T01:45:54.521Z,65.23
2019-03-23T01:46:25.680Z,72.33
2019-03-23T01:46:56.867Z,72.80
2019-03-23T01:47:28.114Z,70.27
2019-03-23T01:47:59.305Z,73.37
2019-03-23T01:48:30.470Z,67.77
2019-03-23T01:49:01.651Z,70.30
2019-03-23T01:49:32.871Z,68.20
2019-03-23T01:50:06.375Z,68.03
2019-03-23T01:50:37.622Z,67.60
2019-03-23T01:51:08.871Z,68.67
2019-03-23T01:51:40.128Z,66.03
2019-03-23T01:52:11.423Z,60.13
2019-03-23T01:52:42.686Z,54.03
2019-03-23T01:53:13.910Z,58.20
2019-03-23T01:53:45.137Z,54.27
2019-03-23T01:54:16.363Z,60.87
2019-03-23T01:54:47.627Z,57.77
2019-03-23T01:55:18.828Z,57.20
2019-03-23T01:55:50.068Z,57.87
2019-03-23T01:56:21.283Z,55.13
2019-03-23T01:56:52.431Z,64.53
2019-03-23T01:57:23.646Z,52.90
2019-03-23T01:57:54.824Z,56.50
2019-03-23T01:58:26.063Z,56.83
2019-03-23T01:58:57.542Z,59.17
2019-03-23T01:59:28.738Z,55.63
2019-03-23T01:59:59.947Z,65.03
2019-03-23T02:00:31.149Z,55.43
2019-03-23T02:01:02.355Z,61.37
2019-03-23T02:01:33.560Z,54.30
2019-03-23T02:02:04.740Z,57.23
2019-03-23T02:02:35.942Z,58.33
2019-03-23T02:03:07.102Z,55.80
2019-03-23T02:03:38.322Z,51.27
2019-03-23T02:04:09.472Z,52.53
2019-03-23T02:04:40.684Z,60.27
2019-03-23T02:05:11.880Z,48.83
2019-03-23T02:05:43.113Z,55.10
2019-03-23T02:06:14.352Z,51.57
2019-03-23T02:06:45.594Z,51.37
2019-03-23T02:07:16.926Z,54.57
2019-03-23T02:07:48.155Z,46.10
2019-03-23T02:08:19.378Z,49.70
2019-03-23T02:08:50.608Z,52.40
2019-03-23T02:09:21.853Z,48.37
2019-03-23T02:09:53.081Z,45.53
2019-03-23T02:10:24.307Z,51.90
2019-03-23T02:10:55.463Z,56.30
2019-03-23T02:11:26.661Z,49.87
2019-03-23T02:11:57.909Z,52.73
2019-03-23T02:12:29.133Z,47.90
2019-03-23T02:13:00.291Z,44.03
2019-03-23T02:13:31.495Z,44.87
2019-03-23T02:14:02.651Z,51.80
2019-03-23T02:14:33.862Z,47.20
2019-03-23T02:15:07.224Z,46.80
2019-03-23T02:15:38.467Z,50.50
2019-03-23T02:16:09.647Z,47.30
2019-03-23T02:16:40.869Z,47.53
2019-03-23T02:17:12.022Z,48.67
2019-03-23T02:17:44.232Z,48.93
2019-03-23T02:18:15.386Z,53.97
2019-03-23T02:18:46.579Z,52.63
2019-03-23T02:19:17.832Z,51.50
2019-03-23T02:19:49.022Z,52.27
2019-03-23T02:20:20.215Z,55.80
2019-03-23T02:20:51.460Z,46.47
2019-03-23T02:21:22.673Z,48.57
2019-03-23T02:21:53.880Z,52.57
2019-03-23T02:22:25.072Z,47.37
2019-03-23T02:22:56.283Z,48.70
2019-03-23T02:23:27.515Z,47.00
2019-03-23T02:23:58.738Z,45.10
2019-03-23T02:24:29.894Z,46.37
2019-03-23T02:25:01.103Z,48.30
2019-03-23T02:25:32.272Z,48.10
2019-03-23T02:26:03.514Z,50.17
2019-03-23T02:26:34.744Z,46.83
2019-03-23T02:27:05.996Z,48.23
2019-03-23T02:27:37.278Z,52.60
2019-03-23T02:28:08.560Z,50.70
2019-03-23T02:28:39.793Z,53.53
2019-03-23T02:29:11.044Z,50.20
2019-03-23T02:29:42.279Z,46.77
2019-03-23T02:30:13.502Z,49.63
2019-03-23T02:30:44.818Z,50.70
2019-03-23T02:31:15.984Z,48.50
2019-03-23T02:31:47.191Z,56.57
2019-03-23T02:32:18.344Z,56.50
2019-03-23T02:32:49.545Z,55.63
2019-03-23T02:33:20.730Z,52.40
2019-03-23T02:33:51.952Z,50.23
2019-03-23T02:34:23.188Z,51.63
2019-03-23T02:34:54.441Z,50.47
2019-03-23T02:35:25.626Z,51.43
2019-03-23T02:35:56.801Z,51.80
2019-03-23T02:36:27.984Z,49.37
2019-03-23T02:36:59.164Z,46.43
2019-03-23T02:37:30.357Z,51.00
2019-03-23T02:38:01.539Z,49.43
2019-03-23T02:38:32.713Z,48.13
2019-03-23T02:39:04.912Z,47.53
2019-03-23T02:39:37.084Z,50.27
2019-03-23T02:40:08.967Z,51.83
2019-03-23T02:40:40.146Z,50.30
2019-03-23T02:41:11.321Z,48.33
2019-03-23T02:41:42.597Z,49.63
2019-03-23T02:42:13.828Z,50.37
2019-03-23T02:42:45.097Z,56.60
2019-03-23T02:43:16.390Z,51.03
2019-03-23T02:43:47.625Z,54.20
2019-03-23T02:44:18.857Z,50.73
2019-03-23T02:44:50.092Z,53.37
2019-03-23T02:45:21.336Z,50.57
2019-03-23T02:45:52.593Z,53.67
2019-03-23T02:46:23.789Z,55.97
2019-03-23T02:46:54.974Z,55.03
2019-03-23T02:47:26.151Z,57.60
2019-03-23T02:47:57.399Z,59.37
2019-03-23T02:48:28.573Z,57.37
2019-03-23T02:48:59.753Z,54.27
2019-03-23T02:49:30.960Z,53.07
2019-03-23T02:50:07.030Z,49.93
2019-03-23T02:50:38.274Z,52.27
2019-03-23T02:51:09.486Z,51.87
2019-03-23T02:51:40.642Z,55.37
2019-03-23T02:52:11.852Z,51.73
2019-03-23T02:52:44.001Z,49.30
2019-03-23T02:53:15.223Z,54.47
2019-03-23T02:53:46.371Z,58.37
2019-03-23T02:54:17.573Z,56.03
2019-03-23T02:54:48.784Z,57.73
2019-03-23T02:55:19.985Z,55.70
2019-03-23T02:55:51.151Z,56.80
2019-03-23T02:56:22.361Z,58.80
2019-03-23T02:56:53.595Z,54.47
2019-03-23T02:57:25.069Z,56.00
2019-03-23T02:57:56.300Z,55.47
2019-03-23T02:58:27.512Z,56.37
2019-03-23T02:58:58.669Z,59.93
2019-03-23T02:59:29.925Z,60.93
2019-03-23T03:00:11.051Z,60.20
2019-03-23T03:00:42.402Z,60.93
2019-03-23T03:01:13.577Z,56.47
2019-03-23T03:01:44.815Z,59.57
2019-03-23T03:02:16.049Z,58.30
2019-03-23T03:02:47.283Z,60.13
2019-03-23T03:03:18.512Z,56.57
2019-03-23T03:03:49.744Z,57.07
2019-03-23T03:04:20.976Z,55.30
2019-03-23T03:04:52.243Z,65.40
2019-03-23T03:05:23.475Z,57.33
2019-03-23T03:05:54.861Z,60.53
2019-03-23T03:06:26.088Z,54.97
2019-03-23T03:06:57.527Z,55.60
2019-03-23T03:07:40.962Z,63.17
2019-03-23T03:08:01.777Z,57.63
2019-03-23T03:08:32.987Z,62.50
2019-03-23T03:09:04.940Z,58.73
2019-03-23T03:09:36.258Z,63.10
2019-03-23T03:10:09.734Z,63.37
2019-03-23T03:10:41.060Z,59.70
2019-03-23T03:11:12.326Z,63.07
2019-03-23T03:11:43.606Z,62.73
2019-03-23T03:12:14.862Z,60.60
2019-03-23T03:12:46.186Z,68.90
2019-03-23T03:13:17.417Z,66.30
2019-03-23T03:13:48.643Z,65.33
2019-03-23T03:14:20.866Z,63.37
2019-03-23T03:14:52.103Z,62.80
2019-03-23T03:15:23.338Z,69.63
2019-03-23T03:15:54.524Z,70.37
2019-03-23T03:16:25.713Z,65.90
2019-03-23T03:16:56.880Z,66.10
2019-03-23T03:17:28.118Z,65.27
2019-03-23T03:17:59.332Z,60.83
2019-03-23T03:18:30.623Z,62.17
2019-03-23T03:19:01.779Z,59.13
2019-03-23T03:19:32.999Z,64.60
2019-03-23T03:20:07.359Z,63.27
2019-03-23T03:20:38.580Z,61.70
2019-03-23T03:21:09.799Z,62.63
2019-03-23T03:21:41.054Z,62.27
2019-03-23T03:22:12.198Z,63.27
2019-03-23T03:22:43.410Z,63.33
2019-03-23T03:23:14.679Z,63.43
2019-03-23T03:23:45.880Z,64.37
2019-03-23T03:24:17.025Z,65.90
2019-03-23T03:24:48.242Z,64.07
2019-03-23T03:25:19.408Z,66.63
2019-03-23T03:25:50.617Z,69.53
2019-03-23T03:26:21.803Z,66.27
2019-03-23T03:26:53.009Z,69.23
2019-03-23T03:27:24.215Z,67.87
2019-03-23T03:27:55.477Z,66.57
2019-03-23T03:28:26.650Z,69.03
2019-03-23T03:28:58.112Z,66.70
2019-03-23T03:29:29.283Z,63.57
2019-03-23T03:30:00.654Z,67.20
2019-03-23T03:30:31.852Z,62.07
2019-03-23T03:31:03.095Z,63.87
2019-03-23T03:31:35.471Z,62.73
2019-03-23T03:32:06.738Z,61.50
2019-03-23T03:32:37.930Z,57.97
2019-03-23T03:33:09.197Z,60.37
2019-03-23T03:33:40.370Z,61.03
2019-03-23T03:34:11.629Z,58.37
2019-03-23T03:34:42.956Z,62.63
2019-03-23T03:35:14.195Z,63.07
2019-03-23T03:35:45.414Z,64.63
2019-03-23T03:36:16.668Z,61.43
2019-03-23T03:36:47.891Z,60.80
2019-03-23T03:37:19.043Z,60.03
2019-03-23T03:37:56.685Z,58.77
2019-03-23T03:38:24.427Z,67.90
2019-03-23T03:38:55.626Z,61.80
2019-03-23T03:39:26.777Z,64.10
2019-03-23T03:39:58.113Z,64.07
2019-03-23T03:40:29.320Z,67.17
2019-03-23T03:41:00.543Z,65.67
2019-03-23T03:41:31.706Z,60.33
2019-03-23T03:42:02.919Z,63.20
2019-03-23T03:42:34.077Z,62.40
2019-03-23T03:43:05.303Z,61.43
2019-03-23T03:43:36.453Z,59.73
2019-03-23T03:44:07.658Z,59.10
2019-03-23T03:44:38.831Z,61.17
2019-03-23T03:45:20.987Z,58.07
2019-03-23T03:45:52.146Z,50.90
2019-03-23T03:46:23.334Z,55.43
2019-03-23T03:46:54.511Z,58.43
2019-03-23T03:47:25.665Z,55.57
2019-03-23T03:47:56.839Z,54.47
2019-03-23T03:48:28.072Z,56.80
2019-03-23T03:49:11.865Z,58.43
2019-03-23T03:49:32.314Z,55.20
2019-03-23T03:50:05.479Z,57.60
2019-03-23T03:50:36.623Z,54.73
2019-03-23T03:51:07.792Z,62.77
2019-03-23T03:51:39.001Z,59.60
2019-03-23T03:52:10.193Z,58.97
2019-03-23T03:52:41.389Z,60.27
2019-03-23T03:53:12.582Z,60.80
2019-03-23T03:53:43.736Z,62.33
2019-03-23T03:54:14.935Z,55.30
2019-03-23T03:54:46.112Z,55.40
2019-03-23T03:55:17.334Z,57.17
2019-03-23T03:55:48.635Z,56.90
2019-03-23T03:56:19.801Z,55.47
2019-03-23T03:56:50.994Z,58.37
2019-03-23T03:57:23.171Z,57.43
2019-03-23T03:57:54.427Z,54.43
2019-03-23T03:58:25.622Z,54.03
2019-03-23T03:58:56.797Z,52.90
2019-03-23T03:59:27.976Z,55.27
2019-03-23T03:59:59.161Z,54.27
2019-03-23T04:00:30.340Z,52.50
2019-03-23T04:01:01.533Z,50.30
2019-03-23T04:01:32.803Z,54.07
2019-03-23T04:02:04.103Z,53.57
2019-03-23T04:02:36.291Z,51.70
2019-03-23T04:03:07.534Z,59.00
2019-03-23T04:03:38.696Z,52.93
2019-03-23T04:04:09.911Z,56.97
2019-03-23T04:04:41.061Z,54.37
2019-03-23T04:05:12.270Z,54.43
2019-03-23T04:05:43.434Z,56.27
2019-03-23T04:06:14.672Z,56.37
2019-03-23T04:06:46.895Z,51.47
2019-03-23T04:07:18.081Z,53.00
2019-03-23T04:07:49.224Z,53.77
2019-03-23T04:08:20.408Z,59.17
2019-03-23T04:08:51.579Z,61.53
2019-03-23T04:09:22.770Z,57.80
2019-03-23T04:09:53.939Z,60.13
2019-03-23T04:10:25.127Z,58.10
2019-03-23T04:10:56.286Z,59.43
2019-03-23T04:11:27.533Z,62.63
2019-03-23T04:11:58.696Z,58.50
2019-03-23T04:12:29.891Z,54.80
2019-03-23T04:13:01.067Z,56.77
2019-03-23T04:13:33.266Z,54.50
2019-03-23T04:14:04.415Z,53.37
2019-03-23T04:14:35.619Z,49.30
2019-03-23T04:15:08.470Z,52.93
2019-03-23T04:15:39.682Z,48.17
2019-03-23T04:16:10.861Z,53.83
2019-03-23T04:16:42.052Z,50.30
2019-03-23T04:17:13.242Z,50.90
2019-03-23T04:17:44.447Z,52.07
2019-03-23T04:18:15.709Z,50.03
2019-03-23T04:18:46.908Z,50.57
2019-03-23T04:19:18.160Z,52.20
2019-03-23T04:19:49.650Z,52.10
2019-03-23T04:20:20.929Z,55.37
2019-03-23T04:20:52.105Z,53.00
2019-03-23T04:21:23.298Z,54.37
2019-03-23T04:21:54.469Z,55.07
2019-03-23T04:22:25.650Z,54.37
2019-03-23T04:22:56.833Z,58.20
2019-03-23T04:23:28.160Z,57.30
2019-03-23T04:23:59.336Z,58.67
2019-03-23T04:24:30.515Z,57.73
2019-03-23T04:25:03.690Z,59.33
2019-03-23T04:25:34.905Z,59.37
2019-03-23T04:26:06.193Z,62.60
2019-03-23T04:26:39.325Z,59.80
2019-03-23T04:27:10.515Z,55.27
2019-03-23T04:27:41.715Z,54.20
2019-03-23T04:28:12.897Z,56.23
2019-03-23T04:28:44.075Z,53.93
2019-03-23T04:29:15.257Z,51.57
2019-03-23T04:29:46.437Z,53.73
2019-03-23T04:30:17.617Z,59.30
2019-03-23T04:30:48.797Z,57.87
2019-03-23T04:31:19.978Z,59.10
2019-03-23T04:31:51.160Z,60.27
2019-03-23T04:32:22.333Z,58.07
2019-03-23T04:32:53.501Z,54.50
2019-03-23T04:33:24.912Z,59.40
2019-03-23T04:33:56.138Z,60.93
2019-03-23T04:34:27.471Z,58.17
2019-03-23T04:34:58.690Z,60.73
2019-03-23T04:35:29.922Z,63.33
2019-03-23T04:36:01.166Z,62.57
2019-03-23T04:36:32.397Z,60.77
2019-03-23T04:37:03.622Z,58.50
2019-03-23T04:37:34.823Z,64.63
2019-03-23T04:38:05.995Z,59.37
2019-03-23T04:38:37.181Z,55.37
2019-03-23T04:39:08.334Z,55.03
2019-03-23T04:39:39.592Z,57.20
2019-03-23T04:40:10.870Z,54.97
2019-03-23T04:40:42.076Z,56.93
2019-03-23T04:41:13.232Z,54.37
2019-03-23T04:41:44.450Z,55.13
2019-03-23T04:42:15.602Z,53.27
2019-03-23T04:42:46.856Z,54.33
2019-03-23T04:43:18.012Z,53.47
2019-03-23T04:43:49.289Z,54.97
2019-03-23T04:44:20.530Z,51.13
2019-03-23T04:44:51.759Z,58.83
2019-03-23T04:45:24.280Z,55.30
2019-03-23T04:45:55.556Z,58.10
2019-03-23T04:46:26.756Z,60.80
2019-03-23T04:46:58.069Z,57.10
2019-03-23T04:47:30.333Z,62.17
2019-03-23T04:48:01.504Z,59.00
2019-03-23T04:48:32.659Z,53.43
2019-03-23T04:49:03.863Z,59.73
2019-03-23T04:49:35.013Z,60.50
2019-03-23T04:50:08.920Z,60.07
2019-03-23T04:50:40.099Z,59.37
2019-03-23T04:51:11.397Z,57.33
2019-03-23T04:51:42.618Z,61.17
2019-03-23T04:52:13.854Z,57.43
2019-03-23T04:52:45.067Z,53.80
2019-03-23T04:53:16.215Z,54.87
2019-03-23T04:53:47.431Z,56.93
2019-03-23T04:54:18.579Z,55.00
2019-03-23T04:54:49.798Z,59.17
2019-03-23T04:55:20.941Z,56.13
2019-03-23T04:55:52.148Z,57.53
2019-03-23T04:56:23.307Z,57.17
2019-03-23T04:56:54.516Z,58.60
2019-03-23T04:57:25.696Z,63.00
2019-03-23T04:57:56.933Z,59.50
2019-03-23T04:58:28.212Z,61.77
2019-03-23T04:58:59.418Z,61.03
2019-03-23T04:59:30.627Z,59.70
2019-03-23T05:00:05.235Z,62.93
2019-03-23T05:00:36.505Z,62.03
2019-03-23T05:01:07.751Z,63.00
2019-03-23T05:01:38.902Z,62.07
2019-03-23T05:02:10.100Z,63.80
2019-03-23T05:02:41.253Z,64.33
2019-03-23T05:03:12.464Z,62.13
2019-03-23T05:03:43.611Z,66.17
2019-03-23T05:04:14.823Z,66.27
2019-03-23T05:04:46.017Z,65.87
2019-03-23T05:05:17.218Z,71.10
2019-03-23T05:05:48.388Z,74.50
2019-03-23T05:06:19.587Z,72.53
2019-03-23T05:06:50.752Z,76.77
2019-03-23T05:07:21.950Z,80.40
2019-03-23T05:07:53.103Z,77.73
2019-03-23T05:08:32.894Z,82.83
2019-03-23T05:08:57.507Z,85.30
2019-03-23T05:09:28.698Z,80.33
2019-03-23T05:09:59.850Z,85.03
2019-03-23T05:10:31.073Z,80.30
2019-03-23T05:11:02.244Z,77.20
2019-03-23T05:11:33.526Z,80.67
2019-03-23T05:12:04.682Z,81.17
2019-03-23T05:12:35.875Z,83.30
2019-03-23T05:13:07.043Z,83.87
2019-03-23T05:13:38.293Z,80.97
2019-03-23T05:14:09.525Z,78.73
2019-03-23T05:14:40.755Z,73.77
2019-03-23T05:15:11.965Z,73.80
2019-03-23T05:15:43.211Z,77.57
2019-03-23T05:16:14.477Z,74.93
2019-03-23T05:16:45.676Z,72.20
2019-03-23T05:17:16.852Z,68.60
2019-03-23T05:17:48.026Z,70.57
2019-03-23T05:18:19.213Z,72.60
2019-03-23T05:18:50.377Z,64.93
2019-03-23T05:19:21.581Z,68.23
2019-03-23T05:19:52.749Z,66.17
2019-03-23T05:20:27.401Z,61.40
2019-03-23T05:20:58.563Z,63.20
2019-03-23T05:21:29.761Z,59.83
2019-03-23T05:22:00.943Z,64.73
2019-03-23T05:22:32.147Z,58.43
2019-03-23T05:23:03.320Z,61.83
2019-03-23T05:23:34.532Z,61.47
2019-03-23T05:24:05.730Z,63.07
2019-03-23T05:24:37.428Z,65.60
2019-03-23T05:25:17.233Z,57.40
2019-03-23T05:25:48.484Z,59.53
2019-03-23T05:26:19.628Z,58.63
2019-03-23T05:26:50.820Z,60.17
2019-03-23T05:27:22.042Z,59.50
2019-03-23T05:27:53.246Z,58.40
2019-03-23T05:28:24.473Z,63.40
2019-03-23T05:28:55.706Z,60.40
2019-03-23T05:29:26.939Z,58.97
2019-03-23T05:29:58.225Z,61.30
2019-03-23T05:30:29.457Z,59.77
2019-03-23T05:31:00.699Z,58.07
2019-03-23T05:31:31.926Z,60.17
2019-03-23T05:32:03.157Z,58.17
2019-03-23T05:32:34.377Z,55.43
2019-03-23T05:33:05.607Z,54.73
2019-03-23T05:33:36.823Z,54.90
2019-03-23T05:34:08.019Z,53.47
2019-03-23T05:34:39.201Z,53.97
2019-03-23T05:35:10.343Z,52.20
2019-03-23T05:35:41.657Z,56.40
2019-03-23T05:36:15.284Z,55.87
2019-03-23T05:36:45.920Z,51.07
2019-03-23T05:37:17.061Z,53.37
2019-03-23T05:37:48.269Z,56.20
2019-03-23T05:38:19.460Z,56.17
2019-03-23T05:38:50.661Z,56.80
2019-03-23T05:39:22.862Z,55.30
2019-03-23T05:39:54.267Z,56.97
2019-03-23T05:40:25.409Z,56.53
2019-03-23T05:40:56.612Z,56.33
2019-03-23T05:41:27.781Z,61.77
2019-03-23T05:41:59.012Z,62.70
2019-03-23T05:42:30.165Z,61.00
2019-03-23T05:43:01.365Z,59.07
2019-03-23T05:43:32.527Z,65.37
2019-03-23T05:44:03.762Z,57.70
2019-03-23T05:44:35.019Z,61.67
2019-03-23T05:45:06.252Z,60.83
2019-03-23T05:45:37.596Z,58.70
2019-03-23T05:46:08.845Z,62.53
2019-03-23T05:46:40.066Z,55.53
2019-03-23T05:47:11.244Z,56.20
2019-03-23T05:47:42.424Z,59.83
2019-03-23T05:48:13.604Z,57.13
2019-03-23T05:48:44.786Z,56.20
2019-03-23T05:49:15.938Z,57.80
2019-03-23T05:49:47.153Z,57.20
2019-03-23T05:50:18.313Z,59.20
2019-03-23T05:50:49.533Z,57.90
2019-03-23T05:51:20.678Z,60.90
2019-03-23T05:51:51.915Z,64.00
2019-03-23T05:52:23.150Z,75.57
2019-03-23T05:52:54.409Z,67.03
2019-03-23T05:53:25.765Z,58.37
2019-03-23T05:53:57.350Z,62.57
2019-03-23T05:54:28.509Z,62.27
2019-03-23T05:54:59.728Z,59.37
2019-03-23T05:55:30.883Z,57.80
2019-03-23T05:56:02.102Z,59.33
2019-03-23T05:56:33.258Z,64.77
2019-03-23T05:57:04.467Z,58.10
2019-03-23T05:57:35.633Z,60.30
2019-03-23T05:58:06.855Z,59.30
2019-03-23T05:58:38.028Z,54.33
2019-03-23T05:59:09.227Z,51.73
2019-03-23T05:59:40.391Z,55.50
2019-03-23T06:00:13.512Z,53.93
2019-03-23T06:00:44.675Z,51.50
2019-03-23T06:01:15.897Z,51.87
2019-03-23T06:01:47.067Z,51.20
2019-03-23T06:02:19.263Z,50.93
2019-03-23T06:02:50.413Z,49.60
2019-03-23T06:03:21.623Z,52.60
2019-03-23T06:03:52.791Z,54.33
2019-03-23T06:04:24.297Z,53.20
2019-03-23T06:04:55.601Z,56.50
2019-03-23T06:05:26.832Z,57.60
2019-03-23T06:05:58.103Z,56.10
2019-03-23T06:06:29.327Z,57.30
2019-03-23T06:07:00.579Z,57.63
2019-03-23T06:07:31.894Z,56.77
2019-03-23T06:08:03.123Z,52.67
2019-03-23T06:08:34.384Z,57.73
2019-03-23T06:09:05.591Z,59.57
2019-03-23T06:09:36.743Z,52.40
2019-03-23T06:10:07.952Z,60.47
2019-03-23T06:10:39.104Z,56.03
2019-03-23T06:11:10.314Z,59.87
2019-03-23T06:11:41.469Z,65.00
2019-03-23T06:12:12.678Z,53.53
2019-03-23T06:12:43.844Z,54.07
2019-03-23T06:13:15.065Z,54.87
2019-03-23T06:13:46.224Z,51.67
2019-03-23T06:14:17.380Z,56.67
2019-03-23T06:14:49.570Z,53.43
2019-03-23T06:15:20.750Z,55.90
2019-03-23T06:15:51.948Z,50.90
2019-03-23T06:16:23.129Z,51.33
2019-03-23T06:16:54.387Z,54.33
2019-03-23T06:17:25.572Z,52.73
2019-03-23T06:17:56.745Z,53.23
2019-03-23T06:18:28.064Z,55.63
2019-03-23T06:18:59.232Z,55.30
2019-03-23T06:19:30.443Z,55.00
2019-03-23T06:20:04.649Z,56.57
2019-03-23T06:20:35.818Z,55.10
2019-03-23T06:21:07.004Z,48.20
2019-03-23T06:21:38.207Z,54.37
2019-03-23T06:22:09.368Z,59.53
2019-03-23T06:22:40.579Z,51.83
2019-03-23T06:23:11.756Z,52.37
2019-03-23T06:23:42.966Z,60.60
2019-03-23T06:24:14.127Z,54.63
2019-03-23T06:24:45.307Z,56.63
2019-03-23T06:25:16.525Z,57.23
2019-03-23T06:25:47.820Z,53.90
2019-03-23T06:26:19.003Z,51.47
2019-03-23T06:26:50.181Z,56.50
2019-03-23T06:27:21.367Z,55.10
2019-03-23T06:27:52.539Z,50.33
2019-03-23T06:28:23.723Z,50.37
2019-03-23T06:28:54.999Z,51.80
2019-03-23T06:29:26.215Z,53.53
2019-03-23T06:29:57.466Z,51.80
2019-03-23T06:30:28.657Z,58.63
2019-03-23T06:30:59.848Z,54.63
2019-03-23T06:31:31.036Z,49.37
2019-03-23T06:32:02.250Z,53.07
2019-03-23T06:32:33.414Z,54.73
2019-03-23T06:33:05.600Z,55.23
2019-03-23T06:33:36.789Z,53.23
2019-03-23T06:34:07.988Z,55.10
2019-03-23T06:34:39.184Z,52.60
2019-03-23T06:35:11.366Z,50.73
2019-03-23T06:35:42.558Z,56.67
2019-03-23T06:36:13.741Z,51.10
2019-03-23T06:36:44.920Z,59.30
2019-03-23T06:37:16.104Z,58.43
2019-03-23T06:37:47.284Z,54.30
2019-03-23T06:38:18.472Z,56.60
2019-03-23T06:38:49.760Z,55.53
2019-03-23T06:39:21.988Z,52.73
2019-03-23T06:39:53.178Z,55.47
2019-03-23T06:40:24.386Z,55.30
2019-03-23T06:40:55.580Z,50.63
2019-03-23T06:41:27.860Z,53.60
2019-03-23T06:41:59.032Z,47.20
2019-03-23T06:42:30.231Z,51.87
2019-03-23T06:43:01.380Z,49.83
2019-03-23T06:43:32.583Z,54.57